createdAt,value
2023-02-24T00:02:15.627Z,101191.52
2023-02-24T00:04:45.757Z,101181.40
2023-02-24T00:07:14.265Z,101171.52
2023-02-24T00:09:44.774Z,101162.58
2023-02-24T00:12:14.602Z,101156.86
2023-02-24T00:14:48.809Z,101156.37
2023-02-24T00:17:18.517Z,101146.56
2023-02-24T00:19:47.363Z,101131.71
2023-02-24T00:22:16.339Z,101122.67
2023-02-24T00:24:44.953Z,101116.13
2023-02-24T00:27:13.396Z,101109.11
2023-02-24T00:29:46.362Z,101103.33
2023-02-24T00:32:15.147Z,101100.89
2023-02-24T00:34:45.056Z,101089.25
2023-02-24T00:37:15.615Z,101079.77
2023-02-24T00:39:48.186Z,101060.64
2023-02-24T00:42:17.545Z,101050.20
2023-02-24T00:44:47.284Z,101049.88
2023-02-24T00:47:17.599Z,101050.92
2023-02-24T00:49:46.416Z,101048.45
2023-02-24T00:52:19.549Z,101043.80
2023-02-24T00:54:49.556Z,101035.00
2023-02-24T00:57:20.097Z,101021.90
2023-02-24T00:59:51.990Z,101018.34
2023-02-24T01:02:22.002Z,101013.71
2023-02-24T01:04:51.643Z,101006.88
2023-02-24T01:07:21.052Z,101002.27
2023-02-24T01:09:50.293Z,101001.79
2023-02-24T01:12:49.684Z,101004.11
2023-02-24T01:15:20.725Z,100997.98
2023-02-24T01:17:50.211Z,100994.14
2023-02-24T01:20:19.275Z,100985.69
2023-02-24T01:22:49.858Z,100989.06
2023-02-24T01:25:20.827Z,100989.30
2023-02-24T01:27:49.726Z,100984.27
2023-02-24T01:30:18.890Z,100977.14
2023-02-24T01:32:49.370Z,100968.48
2023-02-24T01:35:25.951Z,100965.73
2023-02-24T01:37:54.700Z,100962.17
2023-02-24T01:40:27.134Z,100951.48
2023-02-24T01:42:56.916Z,100955.34
2023-02-24T01:45:29.111Z,100954.40
2023-02-24T01:48:00.748Z,100952.50
2023-02-24T01:50:29.403Z,100949.08
2023-02-24T01:53:01.172Z,100945.81
2023-02-24T01:55:41.026Z,100942.36
2023-02-24T01:58:15.902Z,100936.83
2023-02-24T02:00:48.261Z,100929.73
2023-02-24T02:03:31.799Z,100925.40
2023-02-24T02:06:02.910Z,100920.70
2023-02-24T02:08:32.788Z,100918.33
2023-02-24T02:11:04.298Z,100912.66
2023-02-24T02:13:43.431Z,100912.70
2023-02-24T02:16:51.671Z,100902.76
2023-02-24T02:20:00.806Z,100897.89
2023-02-24T02:22:49.986Z,100897.02
2023-02-24T02:25:54.956Z,100887.75
2023-02-24T02:28:57.160Z,100885.03
2023-02-24T02:31:46.878Z,100889.82
2023-02-24T02:34:40.253Z,100879.50
2023-02-24T02:37:12.438Z,100876.59
2023-02-24T02:39:52.790Z,100874.45
2023-02-24T02:42:59.149Z,100875.97
2023-02-24T02:45:41.116Z,100874.02
2023-02-24T02:48:22.468Z,100869.27
2023-02-24T02:51:04.453Z,100864.90
2023-02-24T02:53:50.760Z,100860.08
2023-02-24T02:56:24.522Z,100861.84
2023-02-24T02:58:54.584Z,100854.31
2023-02-24T03:01:26.639Z,100845.49
2023-02-24T03:03:57.506Z,100846.92
2023-02-24T03:06:30.807Z,100836.61
2023-02-24T03:09:18.442Z,100835.31
2023-02-24T03:11:53.333Z,100829.80
2023-02-24T03:14:24.552Z,100820.98
2023-02-24T03:16:53.326Z,100814.16
2023-02-24T03:19:28.438Z,100799.63
2023-02-24T03:22:01.581Z,100798.63
2023-02-24T03:24:30.755Z,100794.83
2023-02-24T03:27:09.280Z,100790.79
2023-02-24T03:29:42.442Z,100789.02
2023-02-24T03:32:20.351Z,100776.45
2023-02-24T03:35:00.990Z,100764.56
2023-02-24T03:37:30.317Z,100767.64
2023-02-24T03:40:12.024Z,100763.69
2023-02-24T03:42:43.941Z,100759.52
2023-02-24T03:45:12.594Z,100752.36
2023-02-24T03:47:41.333Z,100744.11
2023-02-24T03:50:17.789Z,100739.55
2023-02-24T03:53:11.482Z,100735.12
2023-02-24T03:55:44.967Z,100734.89
2023-02-24T03:58:39.370Z,100721.45
2023-02-24T04:01:42.763Z,100717.45
2023-02-24T04:04:33.372Z,100702.13
2023-02-24T04:07:17.648Z,100684.88
2023-02-24T04:10:09.911Z,100677.37
2023-02-24T04:12:52.607Z,100670.24
2023-02-24T04:15:24.495Z,100667.48
2023-02-24T04:17:57.798Z,100655.61
2023-02-24T04:20:31.169Z,100654.27
2023-02-24T04:23:28.934Z,100645.00
2023-02-24T04:25:59.509Z,100636.64
2023-02-24T04:28:30.197Z,100627.96
2023-02-24T04:31:06.286Z,100621.59
2023-02-24T04:33:38.747Z,100615.00
2023-02-24T04:36:09.327Z,100608.61
2023-02-24T04:38:41.709Z,100610.36
2023-02-24T04:41:10.625Z,100605.84
2023-02-24T04:43:39.268Z,100606.03
2023-02-24T04:46:08.280Z,100606.20
2023-02-24T04:48:39.363Z,100604.02
2023-02-24T04:51:09.575Z,100601.14
2023-02-24T04:53:38.367Z,100598.11
2023-02-24T04:56:10.770Z,100598.89
2023-02-24T04:58:41.379Z,100593.07
2023-02-24T05:01:11.013Z,100586.42
2023-02-24T05:03:44.674Z,100579.73
2023-02-24T05:06:17.404Z,100576.20
2023-02-24T05:08:47.151Z,100577.27
2023-02-24T05:11:16.342Z,100571.77
2023-02-24T05:13:48.082Z,100573.84
2023-02-24T05:16:18.208Z,100565.73
2023-02-24T05:18:49.854Z,100565.59
2023-02-24T05:21:37.132Z,100555.06
2023-02-24T05:24:08.777Z,100557.34
2023-02-24T05:26:43.605Z,100549.26
2023-02-24T05:29:15.219Z,100537.80
2023-02-24T05:31:44.678Z,100537.63
2023-02-24T05:34:17.479Z,100524.30
2023-02-24T05:36:46.840Z,100523.87
2023-02-24T05:39:19.534Z,100517.86
2023-02-24T05:41:49.215Z,100506.97
2023-02-24T05:44:23.510Z,100502.45
2023-02-24T05:46:59.357Z,100491.92
2023-02-24T05:49:33.287Z,100492.64
2023-02-24T05:52:10.252Z,100485.13
2023-02-24T05:54:42.285Z,100484.15
2023-02-24T05:57:21.409Z,100474.95
2023-02-24T05:59:53.489Z,100481.48
2023-02-24T06:02:28.222Z,100478.21
2023-02-24T06:04:59.078Z,100484.66
2023-02-24T06:07:28.704Z,100478.32
2023-02-24T06:09:58.899Z,100484.56
2023-02-24T06:12:29.481Z,100494.42
2023-02-24T06:15:07.982Z,100494.84
2023-02-24T06:17:39.767Z,100504.45
2023-02-24T06:20:15.418Z,100503.77
2023-02-24T06:22:44.068Z,100512.43
2023-02-24T06:25:16.130Z,100531.70
2023-02-24T06:27:45.230Z,100543.20
2023-02-24T06:30:15.420Z,100551.08
2023-02-24T06:32:45.239Z,100561.62
2023-02-24T06:35:16.816Z,100574.60
2023-02-24T06:37:51.233Z,100592.21
2023-02-24T06:40:20.255Z,100594.58
2023-02-24T06:42:50.155Z,100613.83
2023-02-24T06:45:19.210Z,100622.91
2023-02-24T06:47:49.071Z,100632.98
2023-02-24T06:50:21.968Z,100649.62
2023-02-24T06:52:53.368Z,100668.88
2023-02-24T06:55:28.073Z,100676.17
2023-02-24T06:57:58.962Z,100687.44
2023-02-24T07:00:41.024Z,100697.93
2023-02-24T07:03:16.159Z,100719.70
2023-02-24T07:05:54.614Z,100735.98
2023-02-24T07:08:24.918Z,100746.33
2023-02-24T07:10:58.347Z,100750.67
2023-02-24T07:13:30.194Z,100767.05
2023-02-24T07:16:07.478Z,100772.66
2023-02-24T07:18:40.837Z,100780.10
2023-02-24T07:21:11.786Z,100791.17
2023-02-24T07:23:41.949Z,100804.34
2023-02-24T07:26:14.977Z,100814.20
2023-02-24T07:28:43.880Z,100829.18
2023-02-24T07:31:14.193Z,100829.70
2023-02-24T07:33:46.948Z,100844.14
2023-02-24T07:36:23.461Z,100854.94
2023-02-24T07:38:53.570Z,100856.62
2023-02-24T07:41:23.318Z,100870.45
2023-02-24T07:43:54.740Z,100886.80
2023-02-24T07:46:26.242Z,100893.36
2023-02-24T07:48:55.875Z,100893.84
2023-02-24T07:51:25.696Z,100900.67
2023-02-24T07:54:02.943Z,100903.35
2023-02-24T07:56:46.272Z,100913.50
2023-02-24T07:59:16.224Z,100912.63
2023-02-24T08:01:51.936Z,100926.58
2023-02-24T08:04:23.599Z,100938.39
2023-02-24T08:06:56.407Z,100936.55
2023-02-24T08:09:46.383Z,100951.69
2023-02-24T08:12:22.112Z,100964.23
2023-02-24T08:14:53.427Z,100976.23
2023-02-24T08:17:26.921Z,100977.15
2023-02-24T08:20:22.965Z,100972.65
2023-02-24T08:22:53.299Z,100986.29
2023-02-24T08:25:36.205Z,100988.05
2023-02-24T08:28:09.412Z,101000.23
2023-02-24T08:30:45.825Z,101001.10
2023-02-24T08:33:20.530Z,101004.83
2023-02-24T08:36:01.713Z,101005.66
2023-02-24T08:38:52.244Z,101017.39
2023-02-24T08:41:29.474Z,101026.42
2023-02-24T08:43:58.772Z,101029.50
2023-02-24T08:46:33.131Z,101032.23
2023-02-24T08:49:11.042Z,101035.17
2023-02-24T08:51:44.574Z,101034.66
2023-02-24T08:54:18.288Z,101040.95
2023-02-24T08:56:56.308Z,101045.60
2023-02-24T08:59:38.745Z,101038.58
2023-02-24T09:02:18.872Z,101048.48
2023-02-24T09:04:49.254Z,101053.23
2023-02-24T09:07:21.180Z,101059.04
2023-02-24T09:09:50.480Z,101063.12
2023-02-24T09:12:22.314Z,101068.38
2023-02-24T09:15:07.774Z,101067.13
2023-02-24T09:17:45.690Z,101077.82
2023-02-24T09:20:42.810Z,101080.90
2023-02-24T09:23:20.477Z,101088.23
2023-02-24T09:25:57.549Z,101096.11
2023-02-24T09:28:27.694Z,101099.96
2023-02-24T09:31:00.623Z,101107.66
2023-02-24T09:33:39.765Z,101109.52
2023-02-24T09:36:20.511Z,101117.89
2023-02-24T09:39:00.647Z,101122.17
2023-02-24T09:42:06.610Z,101124.18
2023-02-24T09:44:36.199Z,101129.08
2023-02-24T09:47:17.468Z,101130.60
2023-02-24T09:49:59.333Z,101134.70
2023-02-24T09:52:41.823Z,101135.13
2023-02-24T09:55:27.386Z,101137.08
2023-02-24T09:58:34.804Z,101135.77
2023-02-24T10:01:52.825Z,101134.98
2023-02-24T10:04:27.806Z,101135.91
2023-02-24T10:07:03.284Z,101125.50
2023-02-24T10:09:38.154Z,101127.02
2023-02-24T10:12:06.871Z,101121.19
2023-02-24T10:15:19.212Z,101119.71
2023-02-24T10:17:56.619Z,101106.86
2023-02-24T10:20:31.358Z,101103.20
2023-02-24T10:23:33.166Z,101096.05
2023-02-24T10:26:08.281Z,101079.00
2023-02-24T10:28:53.657Z,101079.91
2023-02-24T10:31:37.185Z,101074.77
2023-02-24T10:34:10.347Z,101059.59
2023-02-24T10:36:42.060Z,101054.31
2023-02-24T10:39:16.085Z,101053.13
2023-02-24T10:41:47.254Z,101050.18
2023-02-24T10:44:26.611Z,101049.63
2023-02-24T10:47:14.231Z,101043.40
2023-02-24T10:49:58.099Z,101035.76
2023-02-24T10:52:55.380Z,101035.46
2023-02-24T10:55:29.306Z,101030.52
2023-02-24T10:58:08.212Z,101024.23
2023-02-24T11:01:00.272Z,101009.13
2023-02-24T11:03:42.437Z,100997.42
2023-02-24T11:06:40.333Z,100985.38
2023-02-24T11:09:19.818Z,100991.09
2023-02-24T11:12:08.126Z,100998.13
2023-02-24T11:15:08.284Z,100996.13
2023-02-24T11:17:45.113Z,101007.96
2023-02-24T11:20:47.485Z,101011.74
2023-02-24T11:23:24.042Z,101014.45
2023-02-24T11:25:54.736Z,101023.03
2023-02-24T11:29:07.136Z,101023.52
2023-02-24T11:31:56.349Z,101025.16
2023-02-24T11:34:49.753Z,101032.34
2023-02-24T11:37:38.231Z,101030.21
2023-02-24T11:40:17.675Z,101028.09
2023-02-24T11:42:52.084Z,101026.27
2023-02-24T11:45:34.275Z,101031.01
2023-02-24T11:48:17.460Z,101030.01
2023-02-24T11:51:18.776Z,101024.38
2023-02-24T11:54:12.454Z,101034.33
2023-02-24T11:56:56.334Z,101037.58
2023-02-24T11:59:37.115Z,101036.35
2023-02-24T12:02:06.506Z,101036.63
2023-02-24T12:04:43.783Z,101039.55
2023-02-24T12:07:22.278Z,101031.73
2023-02-24T12:10:07.032Z,101037.36
2023-02-24T12:12:56.049Z,101040.85
2023-02-24T12:16:03.993Z,101035.85
2023-02-24T12:18:40.436Z,101042.98
2023-02-24T12:21:31.556Z,101040.02
2023-02-24T12:24:01.452Z,101049.88
2023-02-24T12:27:01.596Z,101048.11
2023-02-24T12:29:35.646Z,101052.10
2023-02-24T12:32:25.447Z,101052.95
2023-02-24T12:35:14.260Z,101045.38
2023-02-24T12:37:51.183Z,101042.92
2023-02-24T12:40:46.057Z,101039.92
2023-02-24T12:43:35.803Z,101034.29
2023-02-24T12:46:22.541Z,101031.83
2023-02-24T12:49:48.504Z,101024.90
2023-02-24T12:52:35.810Z,101015.27
2023-02-24T12:55:06.058Z,101006.95
2023-02-24T12:57:43.614Z,100997.90
2023-02-24T13:00:47.687Z,100999.69
2023-02-24T13:03:35.200Z,100988.77
2023-02-24T13:06:52.769Z,100986.59
2023-02-24T13:09:40.475Z,100975.18
2023-02-24T13:12:15.139Z,100963.23
2023-02-24T13:14:46.601Z,100959.05
2023-02-24T13:17:21.715Z,100951.71
2023-02-24T13:19:52.546Z,100950.30
2023-02-24T13:22:42.273Z,100941.56
2023-02-24T13:25:18.881Z,100932.73
2023-02-24T13:28:00.199Z,100925.69
2023-02-24T13:30:34.583Z,100919.64
2023-02-24T13:33:27.913Z,100912.93
2023-02-24T13:36:26.251Z,100906.23
2023-02-24T13:38:57.790Z,100899.09
2023-02-24T13:41:27.808Z,100892.79
2023-02-24T13:44:06.007Z,100887.67
2023-02-24T13:46:47.668Z,100880.57
2023-02-24T13:49:26.822Z,100879.20
2023-02-24T13:52:30.658Z,100877.06
2023-02-24T13:55:18.540Z,100870.64
2023-02-24T13:57:49.592Z,100858.81
2023-02-24T14:00:27.214Z,100848.64
2023-02-24T14:02:55.902Z,100842.58
2023-02-24T14:05:30.083Z,100835.67
2023-02-24T14:07:58.871Z,100831.40
2023-02-24T14:10:30.202Z,100825.73
2023-02-24T14:13:05.104Z,100821.77
2023-02-24T14:15:35.432Z,100815.69
2023-02-24T14:18:05.609Z,100804.77
2023-02-24T14:20:35.518Z,100800.40
2023-02-24T14:23:20.302Z,100794.57
2023-02-24T14:25:48.948Z,100791.53
2023-02-24T14:28:23.588Z,100783.45
2023-02-24T14:30:54.288Z,100777.98
2023-02-24T14:33:31.828Z,100772.11
2023-02-24T14:36:07.503Z,100772.46
2023-02-24T14:38:40.276Z,100765.77
2023-02-24T14:41:20.031Z,100764.86
2023-02-24T14:43:50.206Z,100758.10
2023-02-24T14:46:19.814Z,100753.81
2023-02-24T14:48:55.299Z,100749.27
2023-02-24T14:51:35.845Z,100743.30
2023-02-24T14:54:07.879Z,100737.45
2023-02-24T14:56:37.440Z,100731.34
2023-02-24T14:59:09.282Z,100722.11
2023-02-24T15:01:44.257Z,100716.53
2023-02-24T15:04:24.898Z,100708.13
2023-02-24T15:06:53.935Z,100708.09
2023-02-24T15:09:24.565Z,100703.05
2023-02-24T15:11:56.727Z,100707.45
2023-02-24T15:14:31.919Z,100702.08
2023-02-24T15:17:08.913Z,100704.37
2023-02-24T15:19:44.327Z,100700.23
2023-02-24T15:22:33.889Z,100695.38
2023-02-24T15:25:28.070Z,100698.21
2023-02-24T15:28:03.554Z,100697.52
2023-02-24T15:30:34.997Z,100691.52
2023-02-24T15:33:12.216Z,100692.04
2023-02-24T15:35:50.661Z,100689.30
2023-02-24T15:38:45.620Z,100687.22
2023-02-24T15:41:14.714Z,100682.89
2023-02-24T15:43:43.557Z,100677.90
2023-02-24T15:46:19.588Z,100681.59
2023-02-24T15:48:50.262Z,100678.52
2023-02-24T15:51:25.765Z,100675.88
2023-02-24T15:53:54.600Z,100669.58
2023-02-24T15:56:23.460Z,100670.46
2023-02-24T15:58:52.836Z,100667.14
2023-02-24T16:01:21.703Z,100660.64
2023-02-24T16:03:50.825Z,100658.05
2023-02-24T16:06:21.404Z,100655.13
2023-02-24T16:08:50.653Z,100660.73
2023-02-24T16:11:22.059Z,100652.85
2023-02-24T16:13:55.948Z,100651.90
2023-02-24T16:16:25.506Z,100653.04
2023-02-24T16:18:57.463Z,100649.23
2023-02-24T16:21:26.971Z,100647.27
2023-02-24T16:23:55.667Z,100646.36
2023-02-24T16:26:24.720Z,100650.05
2023-02-24T16:28:55.451Z,100647.39
2023-02-24T16:31:25.843Z,100648.42
2023-02-24T16:33:56.216Z,100640.94
2023-02-24T16:36:25.599Z,100641.23
2023-02-24T16:38:55.188Z,100636.61
2023-02-24T16:41:24.209Z,100631.55
2023-02-24T16:43:52.952Z,100628.30
2023-02-24T16:46:25.475Z,100625.17
2023-02-24T16:48:54.287Z,100629.45
2023-02-24T16:51:24.272Z,100619.58
2023-02-24T16:53:54.586Z,100615.33
2023-02-24T16:56:23.491Z,100609.19
2023-02-24T16:58:52.322Z,100611.38
2023-02-24T17:01:21.447Z,100606.34
2023-02-24T17:03:51.881Z,100603.06
2023-02-24T17:06:22.421Z,100608.71
2023-02-24T17:08:52.689Z,100604.52
2023-02-24T17:11:21.527Z,100597.60
2023-02-24T17:13:50.363Z,100593.94
2023-02-24T17:16:19.565Z,100586.92
2023-02-24T17:18:49.239Z,100583.78
2023-02-24T17:21:18.435Z,100579.78
2023-02-24T17:23:46.746Z,100574.14
2023-02-24T17:26:15.402Z,100566.77
2023-02-24T17:28:43.841Z,100564.77
2023-02-24T17:31:13.079Z,100562.95
2023-02-24T17:33:42.404Z,100556.02
2023-02-24T17:36:11.167Z,100557.23
2023-02-24T17:38:39.829Z,100556.30
2023-02-24T17:41:11.126Z,100551.11
2023-02-24T17:43:40.191Z,100550.14
2023-02-24T17:46:11.781Z,100548.98
2023-02-24T17:48:41.022Z,100543.08
2023-02-24T17:51:16.987Z,100539.80
2023-02-24T17:53:46.315Z,100536.04
2023-02-24T17:56:14.553Z,100529.52
2023-02-24T17:58:43.432Z,100530.70
2023-02-24T18:01:12.170Z,100526.86
2023-02-24T18:03:43.108Z,100526.29
2023-02-24T18:06:13.124Z,100523.78
2023-02-24T18:08:43.561Z,100519.52
2023-02-24T18:11:17.321Z,100520.09
2023-02-24T18:13:51.166Z,100515.42
2023-02-24T18:16:20.360Z,100514.02
2023-02-24T18:18:50.133Z,100505.58
2023-02-24T18:21:18.891Z,100511.45
2023-02-24T18:23:49.842Z,100509.13
2023-02-24T18:26:24.168Z,100503.77
2023-02-24T18:28:58.343Z,100504.83
2023-02-24T18:31:27.876Z,100493.69
2023-02-24T18:33:57.228Z,100497.10
2023-02-24T18:36:26.585Z,100498.27
2023-02-24T18:38:56.752Z,100497.69
2023-02-24T18:41:25.481Z,100499.86
2023-02-24T18:43:55.769Z,100491.54
2023-02-24T18:46:25.692Z,100486.38
2023-02-24T18:48:55.944Z,100491.79
2023-02-24T18:51:26.713Z,100484.54
2023-02-24T18:53:57.581Z,100484.55
2023-02-24T18:56:28.110Z,100479.25
2023-02-24T18:58:59.002Z,100476.85
2023-02-24T19:01:32.514Z,100473.73
2023-02-24T19:04:05.794Z,100466.59
2023-02-24T19:06:37.112Z,100460.98
2023-02-24T19:09:10.583Z,100445.27
2023-02-24T19:11:40.290Z,100432.85
2023-02-24T19:14:11.964Z,100426.89
2023-02-24T19:16:41.251Z,100417.03
2023-02-24T19:19:14.576Z,100417.29
2023-02-24T19:21:45.747Z,100414.11
2023-02-24T19:24:17.450Z,100406.23
2023-02-24T19:26:47.780Z,100400.11
2023-02-24T19:29:22.290Z,100396.79
2023-02-24T19:31:54.378Z,100395.44
2023-02-24T19:34:23.319Z,100387.14
2023-02-24T19:36:52.156Z,100379.50
2023-02-24T19:39:21.174Z,100373.81
2023-02-24T19:41:53.898Z,100365.55
2023-02-24T19:44:24.064Z,100359.92
2023-02-24T19:46:53.654Z,100360.14
2023-02-24T19:49:22.425Z,100354.59
2023-02-24T19:51:55.847Z,100351.48
2023-02-24T19:54:24.698Z,100346.27
2023-02-24T19:56:57.475Z,100339.45
2023-02-24T19:59:26.396Z,100333.23
2023-02-24T20:01:56.918Z,100327.96
2023-02-24T20:04:25.728Z,100320.23
2023-02-24T20:06:57.959Z,100314.73
2023-02-24T20:09:27.247Z,100315.33
2023-02-24T20:11:57.585Z,100312.33
2023-02-24T20:14:27.839Z,100309.31
2023-02-24T20:16:57.204Z,100304.02
2023-02-24T20:19:25.885Z,100296.61
2023-02-24T20:21:55.282Z,100291.04
2023-02-24T20:24:24.190Z,100280.84
2023-02-24T20:26:53.180Z,100276.02
2023-02-24T20:29:22.618Z,100272.60
2023-02-24T20:31:51.798Z,100266.88
2023-02-24T20:34:22.749Z,100260.87
2023-02-24T20:36:56.675Z,100256.35
2023-02-24T20:39:25.694Z,100250.04
2023-02-24T20:41:54.806Z,100246.34
2023-02-24T20:44:24.887Z,100236.34
2023-02-24T20:46:53.912Z,100232.48
2023-02-24T20:49:23.975Z,100229.40
2023-02-24T20:51:53.257Z,100229.13
2023-02-24T20:54:23.174Z,100222.12
2023-02-24T20:56:53.805Z,100219.48
2023-02-24T20:59:22.442Z,100215.56
2023-02-24T21:01:51.658Z,100207.59
2023-02-24T21:04:21.058Z,100209.56
2023-02-24T21:06:52.280Z,100199.21
2023-02-24T21:09:25.747Z,100203.61
2023-02-24T21:11:54.405Z,100200.19
2023-02-24T21:14:23.441Z,100200.98
2023-02-24T21:16:56.190Z,100188.00
2023-02-24T21:19:25.748Z,100187.94
2023-02-24T21:21:54.538Z,100185.27
2023-02-24T21:24:26.887Z,100180.45
2023-02-24T21:26:55.581Z,100177.42
2023-02-24T21:29:24.081Z,100168.55
2023-02-24T21:31:53.698Z,100164.89
2023-02-24T21:34:22.650Z,100161.40
2023-02-24T21:36:51.424Z,100154.44
2023-02-24T21:39:21.070Z,100153.73
2023-02-24T21:41:50.067Z,100149.95
2023-02-24T21:44:19.274Z,100146.33
2023-02-24T21:46:48.827Z,100140.80
2023-02-24T21:49:18.552Z,100139.33
2023-02-24T21:51:50.992Z,100135.01
2023-02-24T21:54:19.781Z,100131.71
2023-02-24T21:56:48.563Z,100130.23
2023-02-24T21:59:17.621Z,100128.00
2023-02-24T22:01:47.241Z,100123.02
2023-02-24T22:04:17.338Z,100119.77
2023-02-24T22:06:47.666Z,100117.75
2023-02-24T22:09:20.113Z,100114.29
2023-02-24T22:11:49.500Z,100107.30
2023-02-24T22:14:19.296Z,100108.95
2023-02-24T22:16:48.059Z,100098.09
2023-02-24T22:19:20.467Z,100085.48
2023-02-24T22:21:49.500Z,100076.52
2023-02-24T22:24:21.246Z,100072.25
2023-02-24T22:26:51.334Z,100064.06
2023-02-24T22:29:19.964Z,100061.09
2023-02-24T22:31:49.812Z,100052.34
2023-02-24T22:34:18.770Z,100047.22
2023-02-24T22:36:48.829Z,100039.08
2023-02-24T22:39:17.839Z,100036.45
2023-02-24T22:41:47.794Z,100033.73
2023-02-24T22:44:19.465Z,100024.12
2023-02-24T22:46:48.553Z,100020.43
2023-02-24T22:49:17.675Z,100016.60
2023-02-24T22:51:46.526Z,100010.02
2023-02-24T22:54:17.373Z,99999.21
2023-02-24T22:56:46.300Z,99991.52
2023-02-24T22:59:17.438Z,99983.73
2023-02-24T23:01:46.737Z,99977.52
2023-02-24T23:04:16.388Z,99967.05
2023-02-24T23:06:47.433Z,99956.55
2023-02-24T23:09:20.204Z,99940.15
2023-02-24T23:11:48.816Z,99932.45
2023-02-24T23:14:17.886Z,99921.02
2023-02-24T23:16:56.044Z,99909.80
2023-02-24T23:19:24.737Z,99890.45
2023-02-24T23:21:53.620Z,99875.46
2023-02-24T23:24:22.807Z,99854.32
2023-02-24T23:26:54.295Z,99829.64
2023-02-24T23:29:24.635Z,99808.69
2023-02-24T23:31:54.282Z,99784.38
2023-02-24T23:34:22.955Z,99753.40
2023-02-24T23:36:52.384Z,99735.65
2023-02-24T23:39:24.167Z,99704.42
2023-02-24T23:41:56.837Z,99679.46
2023-02-24T23:44:25.920Z,99648.28
2023-02-24T23:46:55.002Z,99611.43
2023-02-24T23:49:24.259Z,99573.01
2023-02-24T23:51:53.951Z,99536.44
2023-02-24T23:54:23.359Z,99497.89
2023-02-24T23:56:51.989Z,99456.25
2023-02-24T23:59:22.164Z,99407.64
